sensor_id;sensor_type;location;lat;lon;timestamp;P1;durP1;ratioP1;P2;durP2;ratioP2
64293;SDS011;50636;45.596;5.258;2023-04-08T00:01:28;14.00;;;2.92;;
64293;SDS011;50636;45.596;5.258;2023-04-08T00:03:54;3.92;;;2.20;;
64293;SDS011;50636;45.596;5.258;2023-04-08T00:06:20;8.23;;;2.70;;
64293;SDS011;50636;45.596;5.258;2023-04-08T00:08:45;6.30;;;2.38;;
64293;SDS011;50636;45.596;5.258;2023-04-08T00:11:11;7.43;;;2.67;;
64293;SDS011;50636;45.596;5.258;2023-04-08T00:13:37;8.70;;;2.60;;
64293;SDS011;50636;45.596;5.258;2023-04-08T00:16:02;7.30;;;3.20;;
64293;SDS011;50636;45.596;5.258;2023-04-08T00:18:28;4.55;;;2.97;;
64293;SDS011;50636;45.596;5.258;2023-04-08T00:20:54;7.20;;;2.65;;
64293;SDS011;50636;45.596;5.258;2023-04-08T00:23:21;7.22;;;2.90;;
64293;SDS011;50636;45.596;5.258;2023-04-08T00:25:46;5.32;;;2.83;;
64293;SDS011;50636;45.596;5.258;2023-04-08T00:28:12;10.50;;;5.57;;
64293;SDS011;50636;45.596;5.258;2023-04-08T00:30:38;9.20;;;3.20;;
64293;SDS011;50636;45.596;5.258;2023-04-08T00:33:04;7.57;;;4.85;;
64293;SDS011;50636;45.596;5.258;2023-04-08T00:35:29;5.05;;;3.28;;
64293;SDS011;50636;45.596;5.258;2023-04-08T00:37:55;5.90;;;3.60;;
64293;SDS011;50636;45.596;5.258;2023-04-08T00:40:21;5.45;;;3.10;;
64293;SDS011;50636;45.596;5.258;2023-04-08T00:42:46;5.03;;;2.38;;
64293;SDS011;50636;45.596;5.258;2023-04-08T00:45:12;6.30;;;2.55;;
64293;SDS011;50636;45.596;5.258;2023-04-08T00:47:41;4.32;;;2.47;;
64293;SDS011;50636;45.596;5.258;2023-04-08T00:50:07;4.75;;;2.30;;
64293;SDS011;50636;45.596;5.258;2023-04-08T00:52:36;5.47;;;2.80;;
64293;SDS011;50636;45.596;5.258;2023-04-08T00:55:02;6.30;;;2.65;;
64293;SDS011;50636;45.596;5.258;2023-04-08T00:57:28;4.55;;;2.30;;
64293;SDS011;50636;45.596;5.258;2023-04-08T00:59:54;2.83;;;2.13;;
64293;SDS011;50636;45.596;5.258;2023-04-08T01:02:32;5.43;;;2.42;;
64293;SDS011;50636;45.596;5.258;2023-04-08T01:07:54;12.63;;;6.30;;
64293;SDS011;50636;45.596;5.258;2023-04-08T01:10:29;6.72;;;5.97;;
64293;SDS011;50636;45.596;5.258;2023-04-08T01:13:08;18.77;;;10.27;;
64293;SDS011;50636;45.596;5.258;2023-04-08T01:15:36;10.20;;;5.70;;
64293;SDS011;50636;45.596;5.258;2023-04-08T01:18:05;7.03;;;4.45;;
64293;SDS011;50636;45.596;5.258;2023-04-08T01:20:33;6.97;;;3.67;;
64293;SDS011;50636;45.596;5.258;2023-04-08T01:25:29;4.28;;;3.33;;
64293;SDS011;50636;45.596;5.258;2023-04-08T01:28:00;6.07;;;3.90;;
64293;SDS011;50636;45.596;5.258;2023-04-08T01:30:40;6.10;;;3.65;;
64293;SDS011;50636;45.596;5.258;2023-04-08T01:33:11;8.70;;;4.57;;
64293;SDS011;50636;45.596;5.258;2023-04-08T01:35:39;6.75;;;4.55;;
64293;SDS011;50636;45.596;5.258;2023-04-08T01:38:05;8.10;;;4.35;;
64293;SDS011;50636;45.596;5.258;2023-04-08T01:40:33;5.55;;;4.25;;
64293;SDS011;50636;45.596;5.258;2023-04-08T01:43:00;15.68;;;5.68;;
64293;SDS011;50636;45.596;5.258;2023-04-08T01:45:27;11.18;;;4.63;;
64293;SDS011;50636;45.596;5.258;2023-04-08T01:47:54;9.73;;;3.65;;
64293;SDS011;50636;45.596;5.258;2023-04-08T01:50:21;7.20;;;3.33;;
64293;SDS011;50636;45.596;5.258;2023-04-08T01:52:48;7.25;;;3.50;;
64293;SDS011;50636;45.596;5.258;2023-04-08T01:55:17;7.95;;;3.53;;
64293;SDS011;50636;45.596;5.258;2023-04-08T01:57:43;4.72;;;3.22;;
64293;SDS011;50636;45.596;5.258;2023-04-08T02:00:13;12.02;;;3.60;;
64293;SDS011;50636;45.596;5.258;2023-04-08T02:02:42;18.65;;;4.03;;
64293;SDS011;50636;45.596;5.258;2023-04-08T02:05:11;8.70;;;3.35;;
64293;SDS011;50636;45.596;5.258;2023-04-08T02:07:37;6.63;;;3.60;;
64293;SDS011;50636;45.596;5.258;2023-04-08T02:10:03;15.07;;;4.50;;
64293;SDS011;50636;45.596;5.258;2023-04-08T02:12:29;5.70;;;3.70;;
64293;SDS011;50636;45.596;5.258;2023-04-08T02:14:57;11.98;;;4.15;;
64293;SDS011;50636;45.596;5.258;2023-04-08T02:17:30;7.32;;;4.28;;
64293;SDS011;50636;45.596;5.258;2023-04-08T02:20:26;9.43;;;4.57;;
64293;SDS011;50636;45.596;5.258;2023-04-08T02:23:00;11.02;;;4.47;;
64293;SDS011;50636;45.596;5.258;2023-04-08T02:25:33;4.93;;;4.00;;
64293;SDS011;50636;45.596;5.258;2023-04-08T02:28:02;7.57;;;3.60;;
64293;SDS011;50636;45.596;5.258;2023-04-08T02:30:31;7.30;;;4.15;;
64293;SDS011;50636;45.596;5.258;2023-04-08T02:33:00;3.50;;;2.97;;
64293;SDS011;50636;45.596;5.258;2023-04-08T02:35:30;7.35;;;3.65;;
64293;SDS011;50636;45.596;5.258;2023-04-08T02:37:56;5.25;;;3.33;;
64293;SDS011;50636;45.596;5.258;2023-04-08T02:40:23;5.20;;;3.03;;
64293;SDS011;50636;45.596;5.258;2023-04-08T02:42:50;7.45;;;4.35;;
64293;SDS011;50636;45.596;5.258;2023-04-08T02:45:16;6.07;;;4.25;;
64293;SDS011;50636;45.596;5.258;2023-04-08T02:47:42;15.70;;;5.40;;
64293;SDS011;50636;45.596;5.258;2023-04-08T02:50:07;5.45;;;4.50;;
64293;SDS011;50636;45.596;5.258;2023-04-08T02:52:35;5.75;;;3.72;;
64293;SDS011;50636;45.596;5.258;2023-04-08T02:55:01;6.63;;;3.92;;
64293;SDS011;50636;45.596;5.258;2023-04-08T02:57:27;5.68;;;3.88;;
64293;SDS011;50636;45.596;5.258;2023-04-08T02:59:52;5.15;;;3.42;;
64293;SDS011;50636;45.596;5.258;2023-04-08T03:02:18;6.40;;;3.53;;
64293;SDS011;50636;45.596;5.258;2023-04-08T03:04:44;7.95;;;3.58;;
64293;SDS011;50636;45.596;5.258;2023-04-08T03:07:10;8.15;;;4.25;;
64293;SDS011;50636;45.596;5.258;2023-04-08T03:09:35;7.55;;;4.93;;
64293;SDS011;50636;45.596;5.258;2023-04-08T03:12:01;12.93;;;6.22;;
64293;SDS011;50636;45.596;5.258;2023-04-08T03:14:27;7.63;;;3.78;;
64293;SDS011;50636;45.596;5.258;2023-04-08T03:16:52;8.45;;;4.78;;
64293;SDS011;50636;45.596;5.258;2023-04-08T03:19:18;4.85;;;3.72;;
64293;SDS011;50636;45.596;5.258;2023-04-08T03:21:44;6.00;;;3.78;;
64293;SDS011;50636;45.596;5.258;2023-04-08T03:24:09;6.00;;;4.15;;
64293;SDS011;50636;45.596;5.258;2023-04-08T03:26:35;7.85;;;3.80;;
64293;SDS011;50636;45.596;5.258;2023-04-08T03:29:01;5.35;;;4.05;;
64293;SDS011;50636;45.596;5.258;2023-04-08T03:31:26;4.07;;;3.38;;
64293;SDS011;50636;45.596;5.258;2023-04-08T03:33:52;11.48;;;4.70;;
64293;SDS011;50636;45.596;5.258;2023-04-08T03:36:18;6.53;;;3.83;;
64293;SDS011;50636;45.596;5.258;2023-04-08T03:38:45;7.35;;;4.45;;
64293;SDS011;50636;45.596;5.258;2023-04-08T03:41:11;7.70;;;4.55;;
64293;SDS011;50636;45.596;5.258;2023-04-08T03:43:36;14.95;;;4.30;;
64293;SDS011;50636;45.596;5.258;2023-04-08T03:46:02;5.85;;;4.43;;
64293;SDS011;50636;45.596;5.258;2023-04-08T03:48:27;7.75;;;3.67;;
64293;SDS011;50636;45.596;5.258;2023-04-08T03:50:53;7.80;;;4.70;;
64293;SDS011;50636;45.596;5.258;2023-04-08T03:53:19;8.80;;;4.00;;
64293;SDS011;50636;45.596;5.258;2023-04-08T03:55:44;5.07;;;4.25;;
64293;SDS011;50636;45.596;5.258;2023-04-08T03:58:12;4.90;;;3.90;;
64293;SDS011;50636;45.596;5.258;2023-04-08T04:00:38;9.82;;;4.63;;
64293;SDS011;50636;45.596;5.258;2023-04-08T04:03:04;8.90;;;5.47;;
64293;SDS011;50636;45.596;5.258;2023-04-08T04:05:30;8.43;;;4.72;;
64293;SDS011;50636;45.596;5.258;2023-04-08T04:07:56;6.28;;;4.20;;
64293;SDS011;50636;45.596;5.258;2023-04-08T04:10:25;7.32;;;4.40;;
64293;SDS011;50636;45.596;5.258;2023-04-08T04:12:51;6.95;;;4.65;;
64293;SDS011;50636;45.596;5.258;2023-04-08T04:15:16;6.20;;;3.65;;
64293;SDS011;50636;45.596;5.258;2023-04-08T04:17:42;6.20;;;3.92;;
64293;SDS011;50636;45.596;5.258;2023-04-08T04:20:08;8.73;;;4.53;;
64293;SDS011;50636;45.596;5.258;2023-04-08T04:22:34;5.38;;;4.18;;
64293;SDS011;50636;45.596;5.258;2023-04-08T04:25:00;9.35;;;4.80;;
64293;SDS011;50636;45.596;5.258;2023-04-08T04:27:25;6.68;;;4.32;;
64293;SDS011;50636;45.596;5.258;2023-04-08T04:29:51;6.72;;;3.83;;
64293;SDS011;50636;45.596;5.258;2023-04-08T04:32:17;5.65;;;4.03;;
64293;SDS011;50636;45.596;5.258;2023-04-08T04:34:43;7.68;;;4.35;;
64293;SDS011;50636;45.596;5.258;2023-04-08T04:37:09;10.57;;;5.10;;
64293;SDS011;50636;45.596;5.258;2023-04-08T04:39:35;5.38;;;3.88;;
64293;SDS011;50636;45.596;5.258;2023-04-08T04:42:00;7.50;;;4.43;;
64293;SDS011;50636;45.596;5.258;2023-04-08T04:44:27;5.15;;;4.63;;
64293;SDS011;50636;45.596;5.258;2023-04-08T04:46:53;5.53;;;4.32;;
64293;SDS011;50636;45.596;5.258;2023-04-08T04:49:18;6.32;;;4.25;;
64293;SDS011;50636;45.596;5.258;2023-04-08T04:51:44;9.57;;;5.28;;
64293;SDS011;50636;45.596;5.258;2023-04-08T04:54:10;5.95;;;4.40;;
64293;SDS011;50636;45.596;5.258;2023-04-08T04:56:35;8.45;;;4.22;;
64293;SDS011;50636;45.596;5.258;2023-04-08T04:59:01;5.85;;;4.35;;
64293;SDS011;50636;45.596;5.258;2023-04-08T05:01:27;7.82;;;5.00;;
64293;SDS011;50636;45.596;5.258;2023-04-08T05:03:53;6.13;;;4.70;;
64293;SDS011;50636;45.596;5.258;2023-04-08T05:06:18;8.65;;;5.07;;
64293;SDS011;50636;45.596;5.258;2023-04-08T05:08:44;6.90;;;4.63;;
64293;SDS011;50636;45.596;5.258;2023-04-08T05:11:10;9.82;;;5.63;;
64293;SDS011;50636;45.596;5.258;2023-04-08T05:13:36;6.28;;;4.97;;
64293;SDS011;50636;45.596;5.258;2023-04-08T05:16:01;8.70;;;5.43;;
64293;SDS011;50636;45.596;5.258;2023-04-08T05:18:27;7.47;;;4.03;;
64293;SDS011;50636;45.596;5.258;2023-04-08T05:20:53;9.07;;;5.72;;
64293;SDS011;50636;45.596;5.258;2023-04-08T05:23:18;13.77;;;5.03;;
64293;SDS011;50636;45.596;5.258;2023-04-08T05:25:44;7.03;;;4.57;;
64293;SDS011;50636;45.596;5.258;2023-04-08T05:28:10;7.72;;;4.20;;
64293;SDS011;50636;45.596;5.258;2023-04-08T05:30:36;7.05;;;4.93;;
64293;SDS011;50636;45.596;5.258;2023-04-08T05:33:01;5.65;;;4.40;;
64293;SDS011;50636;45.596;5.258;2023-04-08T05:35:28;8.10;;;4.47;;
64293;SDS011;50636;45.596;5.258;2023-04-08T05:37:53;8.02;;;5.03;;
64293;SDS011;50636;45.596;5.258;2023-04-08T05:40:19;11.40;;;5.53;;
64293;SDS011;50636;45.596;5.258;2023-04-08T05:42:48;8.27;;;6.10;;
64293;SDS011;50636;45.596;5.258;2023-04-08T05:45:14;11.73;;;5.88;;
64293;SDS011;50636;45.596;5.258;2023-04-08T05:47:40;10.27;;;6.18;;
64293;SDS011;50636;45.596;5.258;2023-04-08T05:50:06;13.88;;;5.95;;
64293;SDS011;50636;45.596;5.258;2023-04-08T05:52:32;8.45;;;6.90;;
64293;SDS011;50636;45.596;5.258;2023-04-08T05:54:57;13.35;;;6.68;;
64293;SDS011;50636;45.596;5.258;2023-04-08T05:57:23;7.75;;;6.38;;
64293;SDS011;50636;45.596;5.258;2023-04-08T05:59:49;12.30;;;6.80;;
64293;SDS011;50636;45.596;5.258;2023-04-08T06:02:15;16.17;;;7.90;;
64293;SDS011;50636;45.596;5.258;2023-04-08T06:04:40;11.30;;;7.40;;
64293;SDS011;50636;45.596;5.258;2023-04-08T06:07:06;10.07;;;7.68;;
64293;SDS011;50636;45.596;5.258;2023-04-08T06:09:35;9.40;;;7.85;;
64293;SDS011;50636;45.596;5.258;2023-04-08T06:12:01;12.32;;;7.32;;
64293;SDS011;50636;45.596;5.258;2023-04-08T06:14:27;15.68;;;8.55;;
64293;SDS011;50636;45.596;5.258;2023-04-08T06:16:53;15.23;;;7.93;;
64293;SDS011;50636;45.596;5.258;2023-04-08T06:19:21;12.48;;;7.97;;
64293;SDS011;50636;45.596;5.258;2023-04-08T06:21:47;15.05;;;8.88;;
64293;SDS011;50636;45.596;5.258;2023-04-08T06:24:12;11.25;;;9.10;;
64293;SDS011;50636;45.596;5.258;2023-04-08T06:26:38;12.10;;;9.02;;
64293;SDS011;50636;45.596;5.258;2023-04-08T06:29:04;12.68;;;8.93;;
64293;SDS011;50636;45.596;5.258;2023-04-08T06:31:29;11.73;;;10.43;;
64293;SDS011;50636;45.596;5.258;2023-04-08T06:33:55;17.77;;;9.68;;
64293;SDS011;50636;45.596;5.258;2023-04-08T06:36:21;13.48;;;9.75;;
64293;SDS011;50636;45.596;5.258;2023-04-08T06:38:46;13.10;;;9.82;;
64293;SDS011;50636;45.596;5.258;2023-04-08T06:41:12;11.35;;;9.40;;
64293;SDS011;50636;45.596;5.258;2023-04-08T06:43:38;18.55;;;10.57;;
64293;SDS011;50636;45.596;5.258;2023-04-08T06:46:03;14.35;;;8.73;;
64293;SDS011;50636;45.596;5.258;2023-04-08T06:48:29;12.00;;;9.48;;
64293;SDS011;50636;45.596;5.258;2023-04-08T06:50:55;13.75;;;9.13;;
64293;SDS011;50636;45.596;5.258;2023-04-08T06:53:21;21.25;;;10.38;;
64293;SDS011;50636;45.596;5.258;2023-04-08T06:55:48;16.13;;;9.98;;
64293;SDS011;50636;45.596;5.258;2023-04-08T06:58:14;12.20;;;9.15;;
64293;SDS011;50636;45.596;5.258;2023-04-08T07:00:40;10.93;;;8.95;;
64293;SDS011;50636;45.596;5.258;2023-04-08T07:03:06;14.57;;;10.18;;
64293;SDS011;50636;45.596;5.258;2023-04-08T07:05:34;14.25;;;9.23;;
64293;SDS011;50636;45.596;5.258;2023-04-08T07:08:00;14.00;;;8.65;;
64293;SDS011;50636;45.596;5.258;2023-04-08T07:10:26;11.27;;;7.57;;
64293;SDS011;50636;45.596;5.258;2023-04-08T07:12:52;11.20;;;7.38;;
64293;SDS011;50636;45.596;5.258;2023-04-08T07:15:18;9.95;;;7.22;;
64293;SDS011;50636;45.596;5.258;2023-04-08T07:17:44;12.20;;;7.43;;
64293;SDS011;50636;45.596;5.258;2023-04-08T07:20:11;14.88;;;11.52;;
64293;SDS011;50636;45.596;5.258;2023-04-08T07:22:38;10.63;;;7.55;;
64293;SDS011;50636;45.596;5.258;2023-04-08T07:25:04;9.55;;;7.55;;
64293;SDS011;50636;45.596;5.258;2023-04-08T07:27:30;8.88;;;6.85;;
64293;SDS011;50636;45.596;5.258;2023-04-08T07:29:56;13.30;;;7.53;;
64293;SDS011;50636;45.596;5.258;2023-04-08T07:32:22;15.82;;;7.57;;
64293;SDS011;50636;45.596;5.258;2023-04-08T07:34:47;10.60;;;6.85;;
64293;SDS011;50636;45.596;5.258;2023-04-08T07:37:13;8.95;;;7.32;;
64293;SDS011;50636;45.596;5.258;2023-04-08T07:39:39;8.68;;;7.07;;
64293;SDS011;50636;45.596;5.258;2023-04-08T07:42:05;8.18;;;5.97;;
64293;SDS011;50636;45.596;5.258;2023-04-08T07:44:30;9.48;;;6.28;;
64293;SDS011;50636;45.596;5.258;2023-04-08T07:46:56;10.93;;;6.43;;
64293;SDS011;50636;45.596;5.258;2023-04-08T07:49:22;16.50;;;7.75;;
64293;SDS011;50636;45.596;5.258;2023-04-08T07:51:47;7.85;;;6.07;;
64293;SDS011;50636;45.596;5.258;2023-04-08T07:54:13;11.45;;;6.50;;
64293;SDS011;50636;45.596;5.258;2023-04-08T07:56:44;10.77;;;6.72;;
64293;SDS011;50636;45.596;5.258;2023-04-08T07:59:10;9.15;;;6.38;;
64293;SDS011;50636;45.596;5.258;2023-04-08T08:01:36;12.40;;;7.10;;
64293;SDS011;50636;45.596;5.258;2023-04-08T08:04:02;13.43;;;7.00;;
64293;SDS011;50636;45.596;5.258;2023-04-08T08:06:28;11.90;;;6.65;;
64293;SDS011;50636;45.596;5.258;2023-04-08T08:08:53;9.90;;;6.40;;
64293;SDS011;50636;45.596;5.258;2023-04-08T08:11:19;10.68;;;7.20;;
64293;SDS011;50636;45.596;5.258;2023-04-08T08:13:46;14.80;;;7.15;;
64293;SDS011;50636;45.596;5.258;2023-04-08T08:16:12;8.48;;;6.30;;
64293;SDS011;50636;45.596;5.258;2023-04-08T08:18:38;12.10;;;8.52;;
64293;SDS011;50636;45.596;5.258;2023-04-08T08:21:05;9.10;;;6.95;;
64293;SDS011;50636;45.596;5.258;2023-04-08T08:23:31;12.07;;;7.45;;
64293;SDS011;50636;45.596;5.258;2023-04-08T08:26:00;9.15;;;6.65;;
64293;SDS011;50636;45.596;5.258;2023-04-08T08:28:27;8.20;;;5.80;;
64293;SDS011;50636;45.596;5.258;2023-04-08T08:30:53;9.05;;;6.90;;
64293;SDS011;50636;45.596;5.258;2023-04-08T08:33:18;8.60;;;7.10;;
64293;SDS011;50636;45.596;5.258;2023-04-08T08:35:44;7.45;;;6.75;;
64293;SDS011;50636;45.596;5.258;2023-04-08T08:38:10;7.28;;;6.05;;
64293;SDS011;50636;45.596;5.258;2023-04-08T08:40:37;10.20;;;6.88;;
64293;SDS011;50636;45.596;5.258;2023-04-08T08:43:03;8.93;;;6.68;;
64293;SDS011;50636;45.596;5.258;2023-04-08T08:45:29;11.38;;;6.95;;
64293;SDS011;50636;45.596;5.258;2023-04-08T08:47:55;8.65;;;6.63;;
64293;SDS011;50636;45.596;5.258;2023-04-08T08:50:22;7.15;;;6.22;;
64293;SDS011;50636;45.596;5.258;2023-04-08T08:52:48;9.27;;;5.82;;
64293;SDS011;50636;45.596;5.258;2023-04-08T08:55:16;9.40;;;6.60;;
64293;SDS011;50636;45.596;5.258;2023-04-08T08:57:43;16.50;;;7.72;;
64293;SDS011;50636;45.596;5.258;2023-04-08T09:00:09;12.95;;;6.82;;
64293;SDS011;50636;45.596;5.258;2023-04-08T09:02:36;13.50;;;6.57;;
64293;SDS011;50636;45.596;5.258;2023-04-08T09:05:02;9.82;;;6.70;;
64293;SDS011;50636;45.596;5.258;2023-04-08T09:07:30;11.95;;;7.20;;
64293;SDS011;50636;45.596;5.258;2023-04-08T09:09:59;13.90;;;7.35;;
64293;SDS011;50636;45.596;5.258;2023-04-08T09:12:25;8.57;;;6.95;;
64293;SDS011;50636;45.596;5.258;2023-04-08T09:15:28;12.40;;;7.50;;
64293;SDS011;50636;45.596;5.258;2023-04-08T09:17:47;7.53;;;6.45;;
64293;SDS011;50636;45.596;5.258;2023-04-08T09:20:13;9.52;;;8.00;;
64293;SDS011;50636;45.596;5.258;2023-04-08T09:25:27;11.52;;;7.82;;
64293;SDS011;50636;45.596;5.258;2023-04-08T09:27:55;11.10;;;7.23;;
64293;SDS011;50636;45.596;5.258;2023-04-08T09:30:21;12.88;;;6.85;;
64293;SDS011;50636;45.596;5.258;2023-04-08T09:32:49;9.48;;;6.57;;
64293;SDS011;50636;45.596;5.258;2023-04-08T09:35:17;10.20;;;6.40;;
64293;SDS011;50636;45.596;5.258;2023-04-08T09:37:46;7.65;;;6.65;;
64293;SDS011;50636;45.596;5.258;2023-04-08T09:40:13;7.85;;;6.15;;
64293;SDS011;50636;45.596;5.258;2023-04-08T09:42:46;7.07;;;6.35;;
64293;SDS011;50636;45.596;5.258;2023-04-08T09:45:16;10.07;;;6.07;;
64293;SDS011;50636;45.596;5.258;2023-04-08T09:50:30;6.53;;;4.78;;
64293;SDS011;50636;45.596;5.258;2023-04-08T09:53:00;6.07;;;4.88;;
64293;SDS011;50636;45.596;5.258;2023-04-08T09:55:37;6.68;;;4.68;;
64293;SDS011;50636;45.596;5.258;2023-04-08T09:58:38;6.10;;;4.90;;
64293;SDS011;50636;45.596;5.258;2023-04-08T10:01:03;5.93;;;5.05;;
64293;SDS011;50636;45.596;5.258;2023-04-08T10:03:39;7.47;;;5.00;;
64293;SDS011;50636;45.596;5.258;2023-04-08T10:06:18;6.70;;;5.68;;
64293;SDS011;50636;45.596;5.258;2023-04-08T10:08:46;5.40;;;4.80;;
64293;SDS011;50636;45.596;5.258;2023-04-08T10:11:15;5.10;;;4.55;;
64293;SDS011;50636;45.596;5.258;2023-04-08T10:13:40;5.15;;;4.50;;
64293;SDS011;50636;45.596;5.258;2023-04-08T10:16:23;5.97;;;4.75;;
64293;SDS011;50636;45.596;5.258;2023-04-08T10:18:54;5.10;;;4.70;;
64293;SDS011;50636;45.596;5.258;2023-04-08T10:21:32;5.40;;;4.72;;
64293;SDS011;50636;45.596;5.258;2023-04-08T10:23:59;5.40;;;4.63;;
64293;SDS011;50636;45.596;5.258;2023-04-08T10:26:39;5.25;;;4.53;;
64293;SDS011;50636;45.596;5.258;2023-04-08T10:31:41;5.50;;;4.32;;
64293;SDS011;50636;45.596;5.258;2023-04-08T10:34:14;5.03;;;4.53;;
64293;SDS011;50636;45.596;5.258;2023-04-08T10:36:58;8.35;;;4.40;;
64293;SDS011;50636;45.596;5.258;2023-04-08T10:39:26;6.13;;;3.80;;
64293;SDS011;50636;45.596;5.258;2023-04-08T10:41:51;6.70;;;4.20;;
64293;SDS011;50636;45.596;5.258;2023-04-08T10:44:18;5.47;;;3.80;;
64293;SDS011;50636;45.596;5.258;2023-04-08T10:46:45;5.00;;;3.70;;
64293;SDS011;50636;45.596;5.258;2023-04-08T10:49:12;4.25;;;3.38;;
64293;SDS011;50636;45.596;5.258;2023-04-08T10:51:38;7.07;;;3.78;;
64293;SDS011;50636;45.596;5.258;2023-04-08T10:54:09;4.45;;;4.00;;
64293;SDS011;50636;45.596;5.258;2023-04-08T10:56:46;4.65;;;3.35;;
64293;SDS011;50636;45.596;5.258;2023-04-08T10:59:14;3.28;;;2.97;;
64293;SDS011;50636;45.596;5.258;2023-04-08T11:01:42;3.13;;;2.83;;
64293;SDS011;50636;45.596;5.258;2023-04-08T11:04:13;4.20;;;3.20;;
64293;SDS011;50636;45.596;5.258;2023-04-08T11:06:41;4.05;;;3.17;;
64293;SDS011;50636;45.596;5.258;2023-04-08T11:09:08;3.17;;;2.70;;
64293;SDS011;50636;45.596;5.258;2023-04-08T11:11:33;6.72;;;3.20;;
64293;SDS011;50636;45.596;5.258;2023-04-08T11:14:00;7.30;;;3.25;;
64293;SDS011;50636;45.596;5.258;2023-04-08T11:16:26;4.45;;;3.10;;
64293;SDS011;50636;45.596;5.258;2023-04-08T11:18:53;4.43;;;2.55;;
64293;SDS011;50636;45.596;5.258;2023-04-08T11:21:20;4.53;;;2.55;;
64293;SDS011;50636;45.596;5.258;2023-04-08T11:23:50;4.28;;;2.63;;
64293;SDS011;50636;45.596;5.258;2023-04-08T11:26:17;5.60;;;3.03;;
64293;SDS011;50636;45.596;5.258;2023-04-08T11:28:44;3.55;;;3.00;;
64293;SDS011;50636;45.596;5.258;2023-04-08T11:31:13;5.82;;;3.20;;
64293;SDS011;50636;45.596;5.258;2023-04-08T11:33:51;4.40;;;2.88;;
64293;SDS011;50636;45.596;5.258;2023-04-08T11:36:18;6.05;;;2.80;;
64293;SDS011;50636;45.596;5.258;2023-04-08T11:38:45;3.50;;;2.65;;
64293;SDS011;50636;45.596;5.258;2023-04-08T11:41:12;7.25;;;2.83;;
64293;SDS011;50636;45.596;5.258;2023-04-08T11:43:38;3.63;;;2.88;;
64293;SDS011;50636;45.596;5.258;2023-04-08T11:46:11;3.65;;;2.92;;
64293;SDS011;50636;45.596;5.258;2023-04-08T11:48:37;4.97;;;2.60;;
64293;SDS011;50636;45.596;5.258;2023-04-08T11:51:07;6.72;;;2.38;;
64293;SDS011;50636;45.596;5.258;2023-04-08T11:53:33;2.83;;;2.15;;
64293;SDS011;50636;45.596;5.258;2023-04-08T11:56:14;2.80;;;2.03;;
64293;SDS011;50636;45.596;5.258;2023-04-08T11:58:43;2.25;;;1.83;;
64293;SDS011;50636;45.596;5.258;2023-04-08T12:01:10;2.63;;;1.92;;
64293;SDS011;50636;45.596;5.258;2023-04-08T12:03:36;6.28;;;2.38;;
64293;SDS011;50636;45.596;5.258;2023-04-08T12:06:02;4.85;;;1.90;;
64293;SDS011;50636;45.596;5.258;2023-04-08T12:08:29;4.18;;;2.25;;
64293;SDS011;50636;45.596;5.258;2023-04-08T12:10:55;5.63;;;2.63;;
64293;SDS011;50636;45.596;5.258;2023-04-08T12:13:21;3.53;;;1.90;;
64293;SDS011;50636;45.596;5.258;2023-04-08T12:15:46;3.85;;;2.10;;
64293;SDS011;50636;45.596;5.258;2023-04-08T12:18:12;6.72;;;2.17;;
64293;SDS011;50636;45.596;5.258;2023-04-08T12:20:38;3.30;;;2.10;;
64293;SDS011;50636;45.596;5.258;2023-04-08T12:23:03;4.65;;;1.90;;
64293;SDS011;50636;45.596;5.258;2023-04-08T12:25:30;8.93;;;2.17;;
64293;SDS011;50636;45.596;5.258;2023-04-08T12:27:56;6.43;;;2.30;;
64293;SDS011;50636;45.596;5.258;2023-04-08T12:30:21;2.08;;;1.58;;
64293;SDS011;50636;45.596;5.258;2023-04-08T12:32:47;5.40;;;2.10;;
64293;SDS011;50636;45.596;5.258;2023-04-08T12:35:12;5.75;;;2.17;;
64293;SDS011;50636;45.596;5.258;2023-04-08T12:37:39;2.42;;;1.73;;
64293;SDS011;50636;45.596;5.258;2023-04-08T12:40:04;2.75;;;2.10;;
64293;SDS011;50636;45.596;5.258;2023-04-08T12:42:31;3.35;;;1.90;;
64293;SDS011;50636;45.596;5.258;2023-04-08T12:44:57;5.93;;;2.33;;
64293;SDS011;50636;45.596;5.258;2023-04-08T12:47:22;3.58;;;1.80;;
64293;SDS011;50636;45.596;5.258;2023-04-08T12:49:48;3.60;;;2.20;;
64293;SDS011;50636;45.596;5.258;2023-04-08T12:52:14;4.50;;;2.40;;
64293;SDS011;50636;45.596;5.258;2023-04-08T12:54:39;1.88;;;1.65;;
64293;SDS011;50636;45.596;5.258;2023-04-08T12:57:05;4.30;;;2.15;;
64293;SDS011;50636;45.596;5.258;2023-04-08T12:59:31;3.78;;;2.50;;
64293;SDS011;50636;45.596;5.258;2023-04-08T13:01:57;6.50;;;2.13;;
64293;SDS011;50636;45.596;5.258;2023-04-08T13:04:23;4.40;;;1.77;;
64293;SDS011;50636;45.596;5.258;2023-04-08T13:06:49;5.07;;;2.00;;
64293;SDS011;50636;45.596;5.258;2023-04-08T13:09:15;4.47;;;2.30;;
64293;SDS011;50636;45.596;5.258;2023-04-08T13:11:42;4.57;;;2.28;;
64293;SDS011;50636;45.596;5.258;2023-04-08T13:14:08;5.68;;;2.22;;
64293;SDS011;50636;45.596;5.258;2023-04-08T13:16:33;2.85;;;2.00;;
64293;SDS011;50636;45.596;5.258;2023-04-08T13:18:59;4.95;;;2.00;;
64293;SDS011;50636;45.596;5.258;2023-04-08T13:21:25;3.53;;;1.80;;
64293;SDS011;50636;45.596;5.258;2023-04-08T13:23:51;5.28;;;2.10;;
64293;SDS011;50636;45.596;5.258;2023-04-08T13:26:17;3.30;;;1.90;;
64293;SDS011;50636;45.596;5.258;2023-04-08T13:28:42;3.47;;;1.75;;
64293;SDS011;50636;45.596;5.258;2023-04-08T13:31:08;4.07;;;1.65;;
64293;SDS011;50636;45.596;5.258;2023-04-08T13:33:34;4.75;;;1.63;;
64293;SDS011;50636;45.596;5.258;2023-04-08T13:36:00;5.78;;;1.65;;
64293;SDS011;50636;45.596;5.258;2023-04-08T13:38:25;2.88;;;1.25;;
64293;SDS011;50636;45.596;5.258;2023-04-08T13:40:51;3.70;;;1.55;;
64293;SDS011;50636;45.596;5.258;2023-04-08T13:43:17;2.63;;;1.60;;
64293;SDS011;50636;45.596;5.258;2023-04-08T13:45:43;3.92;;;1.52;;
64293;SDS011;50636;45.596;5.258;2023-04-08T13:48:08;3.15;;;2.00;;
64293;SDS011;50636;45.596;5.258;2023-04-08T13:50:34;3.80;;;1.52;;
64293;SDS011;50636;45.596;5.258;2023-04-08T13:53:00;2.85;;;1.58;;
64293;SDS011;50636;45.596;5.258;2023-04-08T13:55:26;5.03;;;1.58;;
64293;SDS011;50636;45.596;5.258;2023-04-08T13:57:52;4.45;;;1.85;;
64293;SDS011;50636;45.596;5.258;2023-04-08T14:00:17;5.55;;;2.08;;
64293;SDS011;50636;45.596;5.258;2023-04-08T14:02:43;2.47;;;1.65;;
64293;SDS011;50636;45.596;5.258;2023-04-08T14:05:09;1.35;;;1.25;;
64293;SDS011;50636;45.596;5.258;2023-04-08T14:07:34;2.50;;;1.70;;
64293;SDS011;50636;45.596;5.258;2023-04-08T14:10:00;2.55;;;1.35;;
64293;SDS011;50636;45.596;5.258;2023-04-08T14:12:26;3.20;;;1.38;;
64293;SDS011;50636;45.596;5.258;2023-04-08T14:14:51;4.05;;;1.48;;
64293;SDS011;50636;45.596;5.258;2023-04-08T14:17:17;2.42;;;1.52;;
64293;SDS011;50636;45.596;5.258;2023-04-08T14:19:43;17.13;;;2.13;;
64293;SDS011;50636;45.596;5.258;2023-04-08T14:22:08;6.47;;;1.65;;
64293;SDS011;50636;45.596;5.258;2023-04-08T14:24:34;8.68;;;1.98;;
64293;SDS011;50636;45.596;5.258;2023-04-08T14:27:00;7.40;;;1.80;;
64293;SDS011;50636;45.596;5.258;2023-04-08T14:29:26;4.78;;;1.70;;
64293;SDS011;50636;45.596;5.258;2023-04-08T14:31:51;4.88;;;1.80;;
64293;SDS011;50636;45.596;5.258;2023-04-08T14:34:17;5.68;;;1.70;;
64293;SDS011;50636;45.596;5.258;2023-04-08T14:36:43;3.05;;;1.65;;
64293;SDS011;50636;45.596;5.258;2023-04-08T14:39:09;2.55;;;1.60;;
64293;SDS011;50636;45.596;5.258;2023-04-08T14:41:36;11.57;;;1.95;;
64293;SDS011;50636;45.596;5.258;2023-04-08T14:44:02;3.97;;;1.90;;
64293;SDS011;50636;45.596;5.258;2023-04-08T14:46:28;3.60;;;1.80;;
64293;SDS011;50636;45.596;5.258;2023-04-08T14:48:54;2.67;;;1.42;;
64293;SDS011;50636;45.596;5.258;2023-04-08T14:51:19;10.88;;;1.80;;
64293;SDS011;50636;45.596;5.258;2023-04-08T14:53:45;6.05;;;1.60;;
64293;SDS011;50636;45.596;5.258;2023-04-08T14:56:11;4.07;;;1.60;;